VIDP/DEL METAR and TAF weather

Enter ICAO airport designator
Station Type Date Time Source
VIDP METAR 2020/03/28 07:30 UTC NOAA

VIDP 280730Z 31008KT 3000 HZ FEW100 25/14 Q1015 NOSIG


Station Type Date Time Source
VIDP Decoded METAR 2020/03/28 07:30 UTC NOAA

New Delhi / Palam, India (VIDP) 28-34N 077-07E 233M
Mar 28, 2020 - 03:30 AM EDT / 2020.03.28 0730 UTC
Wind: from the NW (310 degrees) at 9 MPH (8 KT):0
Visibility: 1 mile(s):0
Sky conditions: mostly clear
Weather: haze
Temperature: 77 F (25 C)
Dew Point: 57 F (14 C)
Relative Humidity: 50%
Pressure (altimeter): 29.97 in. Hg (1015 hPa)
ob: VIDP 280730Z 31008KT 3000 HZ FEW100 25/14 Q1015 NOSIG
cycle: 7

Station Type Date Time Source
VIDP TAF 2020/03/28 06:24 UTC NOAA

TAF VIDP 280500Z 2806/2912 32008KT 3000 HZ NSC
BECMG 2808/2810 4000 HZ FEW100
BECMG 2817/2819 3000 HZ NSC
BECMG 2900/2902 25004KT 1200 BR
BECMG 2905/2907 32008KT 3500 HZ

Example: see airport list